Wetterdaten: Woche 26.04.10 - 02.05.10 (KW17)
Datum Zeit Temp. A. Feuchte A. Luftdruck Regen Wind Richtung Taupunkt Windchill Windben
26.04.2010 00:00 9,1 C 87 % 1022,5 hPa 0,0 l/m 0,0 km/h N 7,0 C 9,1 C 0,8 km/h
26.04.2010 01:00 8,6 C 89 % 1022,1 hPa 0,0 l/m 0,0 km/h N 6,8 C 8,6 C 0,0 km/h
26.04.2010 02:00 7,9 C 89 % 1021,8 hPa 0,0 l/m 0,0 km/h N 6,3 C 7,9 C 0,8 km/h
26.04.2010 03:00 7,2 C 90 % 1021,7 hPa 0,0 l/m 0,0 km/h N 5,6 C 7,2 C 0,0 km/h
26.04.2010 04:00 6,6 C 91 % 1021,9 hPa 0,0 l/m 0,0 km/h N 5,3 C 6,6 C 0,8 km/h
26.04.2010 05:00 6,1 C 91 % 1021,9 hPa 0,0 l/m 0,0 km/h N 4,7 C 6,1 C 0,0 km/h
26.04.2010 06:00 6,3 C 92 % 1022,0 hPa 0,0 l/m 0,0 km/h N 5,0 C 6,3 C 0,0 km/h
26.04.2010 07:00 9,5 C 89 % 1022,2 hPa 0,0 l/m 0,2 km/h N 7,8 C 9,5 C 2,4 km/h
26.04.2010 08:00 14,6 C 71 % 1021,8 hPa 0,0 l/m 0,6 km/h S 9,3 C 14,6 C 4,4 km/h
26.04.2010 09:00 17,5 C 60 % 1021,7 hPa 0,0 l/m 2,1 km/h S 9,5 C 17,5 C 9,7 km/h
26.04.2010 10:00 20,0 C 55 % 1021,4 hPa 0,0 l/m 1,6 km/h O 10,5 C 20,0 C 8,0 km/h
26.04.2010 11:00 22,5 C 46 % 1021,1 hPa 0,0 l/m 3,1 km/h O 10,1 C 22,5 C 10,1 km/h
26.04.2010 12:00 21,6 C 51 % 1020,8 hPa 0,0 l/m 6,0 km/h O 11,0 C 21,6 C 14,9 km/h
26.04.2010 13:00 16,7 C 73 % 1021,7 hPa 7,0 l/m 4,1 km/h O-NO 11,7 C 16,2 C 12,8 km/h
26.04.2010 14:00 16,5 C 78 % 1022,1 hPa 0,3 l/m 2,3 km/h S-SW 12,7 C 16,5 C 6,8 km/h
26.04.2010 15:00 15,7 C 82 % 1022,3 hPa 0,3 l/m 2,0 km/h S-SW 12,6 C 15,7 C 7,7 km/h
26.04.2010 16:00 15,2 C 85 % 1022,7 hPa 1,0 l/m 0,6 km/h W 12,7 C 15,2 C 4,8 km/h
26.04.2010 17:00 14,8 C 89 % 1023,2 hPa 0,8 l/m 0,3 km/h N 12,9 C 14,8 C 2,0 km/h
26.04.2010 18:00 15,4 C 90 % 1023,0 hPa 0,0 l/m 0,0 km/h N 13,6 C 15,4 C 0,8 km/h
26.04.2010 19:00 14,8 C 86 % 1022,8 hPa 0,0 l/m 0,1 km/h N 12,5 C 14,8 C 0,8 km/h
26.04.2010 20:00 13,2 C 90 % 1022,9 hPa 0,0 l/m 0,1 km/h N 11,5 C 13,2 C 1,2 km/h
26.04.2010 21:00 12,0 C 92 % 1023,3 hPa 0,0 l/m 0,1 km/h N 10,7 C 12,0 C 2,0 km/h
26.04.2010 22:00 11,6 C 92 % 1023,3 hPa 0,0 l/m 0,0 km/h N 10,4 C 11,6 C 0,4 km/h
26.04.2010 23:00 11,1 C 91 % 1023,3 hPa 0,0 l/m 0,0 km/h N 9,7 C 11,1 C 0,4 km/h
27.04.2010 00:00 10,3 C 91 % 1023,6 hPa 0,0 l/m 0,0 km/h N 8,9 C 10,3 C 0,4 km/h
27.04.2010 01:00 10,6 C 91 % 1023,5 hPa 0,0 l/m 0,0 km/h N 9,1 C 10,6 C 1,6 km/h
27.04.2010 02:00 10,1 C 89 % 1023,4 hPa 0,0 l/m 0,0 km/h N 8,4 C 10,1 C 1,2 km/h
27.04.2010 03:00 10,0 C 89 % 1023,5 hPa 0,0 l/m 0,0 km/h N 8,3 C 10,0 C 1,6 km/h
27.04.2010 04:00 9,5 C 91 % 1023,6 hPa 0,0 l/m 0,0 km/h N 8,0 C 9,5 C 0,0 km/h
27.04.2010 05:00 8,4 C 92 % 1023,5 hPa 0,0 l/m 0,0 km/h N 7,1 C 8,4 C 0,4 km/h
27.04.2010 06:00 8,2 C 92 % 1023,7 hPa 0,0 l/m 0,0 km/h N 7,0 C 8,2 C 0,8 km/h
27.04.2010 07:00 11,1 C 88 % 1024,1 hPa 0,0 l/m 0,2 km/h N 9,2 C 11,1 C 2,0 km/h
27.04.2010 08:00 14,8 C 66 % 1024,4 hPa 0,3 l/m 2,5 km/h NW 8,4 C 14,8 C 8,1 km/h
27.04.2010 09:00 15,1 C 62 % 1024,6 hPa 0,0 l/m 2,8 km/h N-NW 7,9 C 15,1 C 9,3 km/h
27.04.2010 10:00 15,8 C 61 % 1024,8 hPa 0,0 l/m 2,4 km/h NW 8,1 C 15,8 C 7,6 km/h
27.04.2010 11:00 16,6 C 58 % 1025,2 hPa 0,0 l/m 2,4 km/h NW 8,2 C 16,6 C 8,0 km/h
27.04.2010 12:00 16,8 C 56 % 1025,3 hPa 0,0 l/m 2,3 km/h N-NW 8,0 C 16,8 C 6,0 km/h
27.04.2010 13:00 17,3 C 53 % 1024,8 hPa 0,0 l/m 1,0 km/h W-SW 7,6 C 17,3 C 6,0 km/h
27.04.2010 14:00 18,7 C 48 % 1024,2 hPa 0,0 l/m 2,1 km/h SW 7,5 C 18,7 C 8,0 km/h
27.04.2010 15:00 18,9 C 46 % 1023,7 hPa 0,0 l/m 2,0 km/h N-NO 7,1 C 18,9 C 6,8 km/h
27.04.2010 16:00 19,6 C 46 % 1023,3 hPa 0,0 l/m 2,3 km/h N-NO 7,6 C 19,6 C 9,3 km/h
27.04.2010 17:00 18,9 C 52 % 1023,0 hPa 0,0 l/m 2,2 km/h O 8,9 C 18,9 C 6,4 km/h
27.04.2010 18:00 17,7 C 58 % 1022,9 hPa 0,0 l/m 0,4 km/h N 9,3 C 17,7 C 3,6 km/h
27.04.2010 19:00 16,4 C 62 % 1023,0 hPa 0,0 l/m 0,3 km/h N 9,0 C 16,4 C 1,6 km/h
27.04.2010 20:00 14,8 C 69 % 1023,8 hPa 1,3 l/m 1,7 km/h O-NO 9,1 C 14,8 C 8,0 km/h
27.04.2010 21:00 12,8 C 85 % 1024,7 hPa 0,5 l/m 0,4 km/h N 10,2 C 12,8 C 4,0 km/h
27.04.2010 22:00 12,5 C 87 % 1025,3 hPa 0,8 l/m 0,6 km/h N 10,3 C 12,5 C 4,8 km/h
27.04.2010 23:00 11,3 C 88 % 1025,6 hPa 0,0 l/m 0,1 km/h N 9,4 C 11,3 C 2,0 km/h
28.04.2010 00:00 11,9 C 84 % 1025,9 hPa 1,8 l/m 3,8 km/h N-NW 9,3 C 11,9 C 10,5 km/h
28.04.2010 01:00 10,5 C 89 % 1026,2 hPa 0,0 l/m 0,0 km/h N 8,7 C 10,5 C 1,2 km/h
28.04.2010 02:00 9,4 C 91 % 1026,0 hPa 0,0 l/m 0,1 km/h N 8,0 C 9,4 C 1,6 km/h
28.04.2010 03:00 9,4 C 91 % 1026,1 hPa 0,3 l/m 0,0 km/h N 8,0 C 9,4 C 1,6 km/h
28.04.2010 04:00 9,7 C 91 % 1026,4 hPa 0,0 l/m 0,1 km/h N 8,2 C 9,7 C 2,0 km/h
28.04.2010 05:00 9,0 C 91 % 1026,6 hPa 0,0 l/m 0,0 km/h N 7,5 C 9,0 C 0,0 km/h
28.04.2010 06:00 8,6 C 91 % 1027,0 hPa 0,0 l/m 0,0 km/h N 7,2 C 8,6 C 0,4 km/h
28.04.2010 07:00 10,2 C 86 % 1027,5 hPa 0,0 l/m 0,3 km/h N-NW 7,9 C 10,2 C 2,0 km/h
28.04.2010 08:00 11,9 C 74 % 1027,8 hPa 0,0 l/m 3,1 km/h NO 7,4 C 11,9 C 6,8 km/h
28.04.2010 09:00 13,1 C 66 % 1027,7 hPa 0,0 l/m 3,2 km/h N 6,8 C 13,1 C 8,9 km/h
28.04.2010 10:00 14,3 C 60 % 1027,7 hPa 0,0 l/m 3,5 km/h N-NO 6,7 C 14,3 C 8,9 km/h
28.04.2010 11:00 16,0 C 52 % 1027,7 hPa 0,0 l/m 3,9 km/h N-NW 6,2 C 16,0 C 12,1 km/h
28.04.2010 12:00 17,0 C 51 % 1027,0 hPa 0,0 l/m 4,1 km/h N-NO 6,7 C 17,0 C 10,1 km/h
28.04.2010 13:00 17,3 C 48 % 1026,3 hPa 0,0 l/m 5,2 km/h N-NO 6,1 C 17,3 C 13,7 km/h
28.04.2010 14:00 17,5 C 44 % 1025,9 hPa 0,0 l/m 4,6 km/h NW 5,2 C 17,5 C 12,4 km/h
28.04.2010 18:00 18,0 C 44 % 1023,8 hPa 0,0 l/m 2,5 km/h NO 5,4 C 18,0 C 6,0 km/h
28.04.2010 19:00 16,7 C 47 % 1023,6 hPa 0,0 l/m 2,0 km/h O 5,3 C 16,7 C 6,0 km/h
28.04.2010 20:00 13,4 C 65 % 1024,1 hPa 0,0 l/m 0,2 km/h N 6,8 C 13,4 C 1,2 km/h
28.04.2010 21:00 11,3 C 72 % 1024,4 hPa 0,0 l/m 0,1 km/h N 6,4 C 11,3 C 1,6 km/h
28.04.2010 22:00 10,2 C 74 % 1024,3 hPa 0,0 l/m 0,0 km/h N 5,8 C 10,2 C 1,6 km/h
28.04.2010 23:00 10,2 C 72 % 1024,1 hPa 0,0 l/m 0,1 km/h N 5,5 C 10,2 C 2,0 km/h
29.04.2010 00:00 9,6 C 74 % 1024,1 hPa 0,0 l/m 0,1 km/h N 5,2 C 9,6 C 1,2 km/h
29.04.2010 01:00 8,2 C 79 % 1023,9 hPa 0,0 l/m 0,0 km/h N 4,7 C 8,2 C 0,4 km/h
29.04.2010 02:00 6,5 C 85 % 1023,5 hPa 0,0 l/m 0,0 km/h N 4,2 C 6,5 C 0,0 km/h
29.04.2010 03:00 5,9 C 89 % 1023,0 hPa 0,0 l/m 0,0 km/h N 4,2 C 5,9 C 0,0 km/h
29.04.2010 04:00 5,2 C 90 % 1022,7 hPa 0,0 l/m 0,0 km/h N 3,6 C 5,2 C 0,0 km/h
29.04.2010 05:00 4,7 C 91 % 1022,4 hPa 0,0 l/m 0,0 km/h N 3,3 C 4,7 C 0,4 km/h
29.04.2010 06:00 5,2 C 92 % 1022,3 hPa 0,0 l/m 0,0 km/h N 3,9 C 5,2 C 0,0 km/h
29.04.2010 07:00 7,6 C 87 % 1022,2 hPa 0,0 l/m 0,2 km/h N 5,5 C 7,6 C 0,8 km/h
29.04.2010 08:00 10,5 C 79 % 1022,0 hPa 0,0 l/m 0,4 km/h O-NO 7,0 C 10,5 C 2,4 km/h
29.04.2010 09:00 13,3 C 70 % 1021,7 hPa 0,0 l/m 1,7 km/h O 7,9 C 13,3 C 5,6 km/h
29.04.2010 10:00 15,1 C 66 % 1021,3 hPa 0,0 l/m 2,0 km/h O 8,8 C 15,1 C 6,4 km/h
29.04.2010 11:00 17,6 C 60 % 1020,7 hPa 0,0 l/m 2,3 km/h O 9,6 C 17,6 C 7,2 km/h
29.04.2010 12:00 19,5 C 51 % 1019,8 hPa 0,0 l/m 2,1 km/h O-NO 9,0 C 19,5 C 8,8 km/h
29.04.2010 13:00 21,0 C 47 % 1018,9 hPa 0,0 l/m 3,3 km/h O 9,3 C 21,0 C 9,7 km/h
29.04.2010 14:00 21,8 C 44 % 1018,0 hPa 0,0 l/m 5,2 km/h O 8,9 C 21,8 C 13,7 km/h
29.04.2010 15:00 22,2 C 42 % 1017,1 hPa 0,0 l/m 5,3 km/h O 8,7 C 22,2 C 14,9 km/h
29.04.2010 16:00 22,3 C 43 % 1016,3 hPa 0,0 l/m 6,1 km/h O 8,9 C 22,2 C 12,5 km/h
29.04.2010 17:00 22,2 C 41 % 1015,7 hPa 0,0 l/m 5,3 km/h O-SO 8,4 C 22,2 C 12,5 km/h
29.04.2010 18:00 21,6 C 44 % 1015,2 hPa 0,0 l/m 3,4 km/h O-NO 8,9 C 21,6 C 8,9 km/h
29.04.2010 19:00 20,3 C 49 % 1014,6 hPa 0,0 l/m 1,1 km/h O 9,3 C 20,3 C 5,2 km/h
29.04.2010 20:00 17,5 C 58 % 1014,4 hPa 0,0 l/m 0,1 km/h N 9,1 C 17,5 C 2,4 km/h
29.04.2010 21:00 13,5 C 73 % 1014,4 hPa 0,0 l/m 0,0 km/h N 8,8 C 13,5 C 0,0 km/h
29.04.2010 22:00 12,3 C 77 % 1014,1 hPa 0,0 l/m 0,0 km/h N 8,4 C 12,3 C 0,0 km/h
29.04.2010 23:00 11,1 C 81 % 1013,7 hPa 0,0 l/m 0,0 km/h N 7,9 C 11,1 C 0,0 km/h
30.04.2010 00:00 10,1 C 85 % 1013,3 hPa 0,0 l/m 0,0 km/h N 7,7 C 10,1 C 0,0 km/h
30.04.2010 01:00 9,4 C 87 % 1012,7 hPa 0,0 l/m 0,0 km/h N 7,3 C 9,4 C 0,0 km/h
30.04.2010 02:00 8,9 C 88 % 1012,3 hPa 0,0 l/m 0,0 km/h N 7,0 C 8,9 C 0,0 km/h
30.04.2010 03:00 8,4 C 89 % 1011,9 hPa 0,0 l/m 0,0 km/h N 6,7 C 8,4 C 0,0 km/h
30.04.2010 04:00 8,2 C 90 % 1011,9 hPa 0,0 l/m 0,0 km/h N 6,6 C 8,2 C 0,0 km/h
30.04.2010 05:00 7,7 C 90 % 1011,7 hPa 0,0 l/m 0,0 km/h N 6,2 C 7,7 C 0,0 km/h
30.04.2010 06:00 8,2 C 91 % 1011,9 hPa 0,0 l/m 0,0 km/h N 6,8 C 8,2 C 0,0 km/h
30.04.2010 07:00 11,2 C 84 % 1012,3 hPa 0,0 l/m 0,1 km/h N 8,5 C 11,2 C 0,4 km/h
30.04.2010 08:00 13,8 C 74 % 1012,5 hPa 0,0 l/m 0,5 km/h N 9,2 C 13,8 C 3,2 km/h
30.04.2010 09:00 15,1 C 71 % 1012,5 hPa 0,0 l/m 0,7 km/h O-NO 9,8 C 15,1 C 3,6 km/h
30.04.2010 10:00 16,8 C 67 % 1012,5 hPa 0,0 l/m 1,4 km/h O-NO 10,5 C 16,8 C 5,2 km/h
30.04.2010 11:00 18,8 C 63 % 1012,1 hPa 0,0 l/m 1,7 km/h O 11,6 C 18,8 C 5,6 km/h
30.04.2010 12:00 20,8 C 60 % 1011,7 hPa 0,0 l/m 2,4 km/h O 12,7 C 20,8 C 6,8 km/h
30.04.2010 13:00 23,0 C 55 % 1011,1 hPa 0,0 l/m 2,0 km/h O 13,4 C 23,0 C 6,4 km/h
30.04.2010 14:00 23,8 C 52 % 1010,7 hPa 0,0 l/m 3,4 km/h O 13,3 C 23,8 C 7,6 km/h
30.04.2010 15:00 24,3 C 52 % 1010,1 hPa 0,0 l/m 3,0 km/h O 13,8 C 24,3 C 7,2 km/h
30.04.2010 16:00 25,0 C 49 % 1009,7 hPa 0,0 l/m 2,7 km/h O 13,6 C 25,0 C 8,1 km/h
30.04.2010 17:00 25,2 C 47 % 1009,2 hPa 0,0 l/m 1,2 km/h S 13,0 C 25,2 C 5,6 km/h
30.04.2010 18:00 24,5 C 50 % 1008,8 hPa 0,0 l/m 0,7 km/h N 13,3 C 24,5 C 5,6 km/h
30.04.2010 19:00 22,5 C 60 % 1008,6 hPa 0,0 l/m 0,1 km/h N 14,3 C 22,5 C 1,2 km/h
30.04.2010 20:00 19,6 C 71 % 1009,0 hPa 0,0 l/m 0,0 km/h N 14,2 C 19,6 C 0,0 km/h
30.04.2010 21:00 18,5 C 76 % 1009,2 hPa 0,0 l/m 0,0 km/h N 14,2 C 18,5 C 0,0 km/h
30.04.2010 22:00 17,3 C 78 % 1008,8 hPa 0,0 l/m 0,0 km/h N 13,5 C 17,3 C 0,0 km/h
30.04.2010 23:00 16,3 C 81 % 1008,6 hPa 0,0 l/m 0,0 km/h N 13,0 C 16,3 C 0,4 km/h
01.05.2010 00:00 16,5 C 81 % 1008,2 hPa 0,0 l/m 0,0 km/h N 13,2 C 16,5 C 0,4 km/h
01.05.2010 01:00 16,3 C 79 % 1007,8 hPa 0,0 l/m 0,0 km/h N 12,7 C 16,3 C 1,2 km/h
01.05.2010 02:00 16,5 C 74 % 1007,5 hPa 0,0 l/m 0,3 km/h N 11,8 C 16,5 C 3,6 km/h
01.05.2010 03:00 18,1 C 69 % 1008,5 hPa 0,0 l/m 4,3 km/h NW 12,2 C 18,1 C 16,9 km/h
01.05.2010 04:00 17,6 C 71 % 1009,3 hPa 0,0 l/m 7,7 km/h N-NW 12,3 C 17,0 C 25,3 km/h
01.05.2010 05:00 16,8 C 70 % 1009,9 hPa 0,0 l/m 6,5 km/h NW 11,3 C 16,4 C 18,9 km/h
01.05.2010 06:00 16,1 C 73 % 1010,7 hPa 0,0 l/m 5,1 km/h NW 11,2 C 16,1 C 14,1 km/h
01.05.2010 07:00 16,0 C 75 % 1010,9 hPa 0,0 l/m 3,3 km/h N-NW 11,6 C 16,0 C 8,0 km/h
01.05.2010 08:00 16,6 C 75 % 1010,8 hPa 0,0 l/m 4,7 km/h N-NW 12,2 C 16,6 C 10,1 km/h
01.05.2010 09:00 17,7 C 71 % 1011,0 hPa 0,0 l/m 4,5 km/h N-NW 12,4 C 17,7 C 12,9 km/h
01.05.2010 10:00 19,1 C 66 % 1010,9 hPa 0,0 l/m 5,4 km/h NW 12,6 C 19,1 C 13,7 km/h
01.05.2010 11:00 20,7 C 60 % 1010,6 hPa 0,0 l/m 5,1 km/h SO 12,6 C 20,6 C 14,5 km/h
01.05.2010 12:00 22,1 C 57 % 1010,0 hPa 0,0 l/m 3,7 km/h NW 13,0 C 22,1 C 11,3 km/h
01.05.2010 13:00 22,5 C 53 % 1009,5 hPa 0,0 l/m 3,7 km/h NW 12,4 C 22,5 C 10,9 km/h
01.05.2010 14:00 22,3 C 56 % 1009,0 hPa 0,0 l/m 3,8 km/h N-NW 13,0 C 22,3 C 9,3 km/h
01.05.2010 15:00 22,3 C 53 % 1008,5 hPa 0,0 l/m 2,6 km/h N-NO 12,2 C 22,3 C 9,7 km/h
01.05.2010 16:00 20,0 C 66 % 1008,7 hPa 0,0 l/m 4,0 km/h W-SW 13,3 C 20,0 C 13,3 km/h
01.05.2010 17:00 19,0 C 74 % 1008,6 hPa 0,0 l/m 1,3 km/h S-SW 14,1 C 19,0 C 6,8 km/h
01.05.2010 18:00 19,6 C 69 % 1008,4 hPa 0,0 l/m 0,3 km/h N 13,8 C 19,6 C 3,6 km/h
01.05.2010 19:00 19,1 C 73 % 1008,2 hPa 0,0 l/m 0,2 km/h N 14,1 C 19,1 C 2,4 km/h
01.05.2010 20:00 17,6 C 84 % 1008,2 hPa 0,0 l/m 0,0 km/h N 14,9 C 17,6 C 0,8 km/h
01.05.2010 21:00 17,2 C 86 % 1008,2 hPa 0,0 l/m 0,0 km/h N 14,7 C 17,2 C 0,8 km/h
01.05.2010 22:00 16,7 C 85 % 1008,2 hPa 0,0 l/m 0,0 km/h N 14,2 C 16,7 C 0,0 km/h
01.05.2010 23:00 16,5 C 85 % 1008,8 hPa 0,3 l/m 1,1 km/h NW 13,9 C 16,5 C 5,6 km/h
02.05.2010 00:00 15,3 C 84 % 1008,9 hPa 0,0 l/m 1,5 km/h N-NW 12,5 C 15,3 C 6,0 km/h
02.05.2010 01:00 14,9 C 84 % 1008,9 hPa 0,0 l/m 2,8 km/h W-SW 12,2 C 14,9 C 12,5 km/h
02.05.2010 02:00 14,9 C 82 % 1009,0 hPa 0,3 l/m 2,7 km/h W-SW 11,9 C 14,9 C 13,7 km/h
02.05.2010 03:00 14,9 C 81 % 1009,3 hPa 0,0 l/m 0,8 km/h SW 11,7 C 14,9 C 6,8 km/h
02.05.2010 04:00 14,7 C 82 % 1009,8 hPa 0,0 l/m 1,5 km/h S-SW 11,7 C 14,7 C 9,6 km/h
02.05.2010 05:00 14,6 C 82 % 1009,8 hPa 0,0 l/m 2,1 km/h NW 11,5 C 14,6 C 7,6 km/h
02.05.2010 06:00 14,5 C 80 % 1010,1 hPa 0,0 l/m 1,8 km/h NW 11,0 C 14,5 C 6,8 km/h
02.05.2010 07:00 14,7 C 78 % 1010,4 hPa 0,0 l/m 1,5 km/h W 10,9 C 14,7 C 7,2 km/h
02.05.2010 08:00 14,8 C 78 % 1010,6 hPa 0,0 l/m 0,4 km/h N 11,0 C 14,8 C 4,0 km/h
02.05.2010 09:00 14,9 C 78 % 1011,0 hPa 0,0 l/m 0,4 km/h N 11,1 C 14,9 C 3,6 km/h
02.05.2010 10:00 14,9 C 79 % 1011,1 hPa 0,0 l/m 0,3 km/h N 11,2 C 14,9 C 2,0 km/h
02.05.2010 11:00 15,0 C 80 % 1010,9 hPa 0,0 l/m 0,8 km/h N-NO 11,5 C 15,0 C 4,0 km/h
02.05.2010 12:00 16,0 C 78 % 1010,3 hPa 0,0 l/m 2,1 km/h NO 12,2 C 16,0 C 5,6 km/h
02.05.2010 13:00 16,6 C 76 % 1009,8 hPa 0,0 l/m 1,5 km/h O-NO 12,3 C 16,6 C 5,2 km/h
02.05.2010 14:00 17,0 C 75 % 1009,3 hPa 0,0 l/m 2,1 km/h O 12,6 C 17,0 C 6,4 km/h
02.05.2010 15:00 17,3 C 76 % 1008,4 hPa 0,0 l/m 2,8 km/h O 13,0 C 17,3 C 6,0 km/h
02.05.2010 16:00 18,2 C 75 % 1007,5 hPa 0,0 l/m 2,6 km/h O-NO 13,6 C 18,2 C 6,4 km/h
02.05.2010 17:00 18,9 C 73 % 1006,8 hPa 0,0 l/m 3,0 km/h O-NO 13,8 C 18,9 C 6,4 km/h
02.05.2010 18:00 19,3 C 68 % 1006,3 hPa 0,0 l/m 2,8 km/h O 13,3 C 19,3 C 7,2 km/h
02.05.2010 19:00 18,7 C 70 % 1005,5 hPa 0,0 l/m 1,5 km/h O 13,1 C 18,7 C 4,8 km/h
02.05.2010 20:00 17,1 C 73 % 1005,5 hPa 0,0 l/m 0,5 km/h N 12,3 C 17,1 C 2,4 km/h
02.05.2010 21:00 16,6 C 67 % 1005,7 hPa 0,0 l/m 0,6 km/h O-SO 10,4 C 16,6 C 3,2 km/h
02.05.2010 22:00 16,2 C 66 % 1005,3 hPa 0,0 l/m 1,1 km/h O-SO 9,7 C 16,2 C 4,0 km/h
02.05.2010 23:00 14,7 C 72 % 1005,1 hPa 0,0 l/m 0,0 km/h N 9,7 C 14,7 C 0,8 km/h
Min-Datum _ 29.04.10 29.04.10 02.05.10 - 26.04.10 - 29.04.10 29.04.10 26.04.10
_ Min-Zeit 05:30 15:45 22:45 - 00:00 - 05:30 05:30 00:00
Minimum _ 4,6 C 41 % 1005,1 hPa - 0,0 km/h - 3,3 C 4,6 C 0,0 km/h
Max-Datum _ 30.04.10 27.04.10 28.04.10 26.04.10 26.04.10 - 01.05.10 30.04.10 01.05.10
_ Max-Zeit 17:30 07:00 08:45 13:00 13:00 - 20:30 17:30 04:45
Maximum _ 25,6 C 93 % 1027,9 hPa 7,0 l/m 10,7 km/h
O-NO
- 14,9 C 25,6 C 32,2 km/h
NW
Durchschnitt _ 15,0 C 73 % 1017,0 hPa #14,8 l/m 1,5 km/h O 9,7 C 15,0 C 5,1 km/h